Time,TemperatureF,DewpointF,PressureIn,WindDirection,WindDirectionDegrees,WindSpeedMPH,WindSpeedGustMPH,Humidity,HourlyPrecipIn,Conditions,Clouds,dailyrainin,SoftwareType,DateUTC
2013-02-01 00:03:00,0.0,-5.3,30.12,West,277,0.0,0.0,78,0.00,SN,SN,0.00,WeatherDisplay:10.37,2013-02-01 06:03:00,
2013-02-01 00:13:00,0.0,-5.3,30.12,West,278,0.0,2.0,78,0.00,SN,SN,0.00,WeatherDisplay:10.37,2013-02-01 06:13:00,
2013-02-01 00:23:00,-0.2,-5.4,30.13,WNW,294,0.0,0.0,78,0.00,SN,SN,0.00,WeatherDisplay:10.37,2013-02-01 06:23:00,
2013-02-01 00:33:00,-0.6,-5.5,30.12,West,270,0.0,6.0,79,0.00,SN,SN,0.00,WeatherDisplay:10.37,2013-02-01 06:33:00,
2013-02-01 00:43:00,-0.9,-5.4,30.12,West,274,0.0,5.0,81,0.00,SN,SN,0.00,WeatherDisplay:10.37,2013-02-01 06:43:00,
2013-02-01 00:53:00,-1.1,-5.3,30.13,WNW,284,0.0,7.0,82,0.00,SN,SN,0.00,WeatherDisplay:10.37,2013-02-01 06:53:00,
2013-02-01 01:03:00,-1.3,-5.5,30.14,West,277,0.0,0.0,82,0.00,SN,SN,0.00,WeatherDisplay:10.37,2013-02-01 07:03:00,
2013-02-01 01:13:00,-1.3,-5.5,30.14,West,276,0.0,0.0,82,0.00,SN,SN,0.00,WeatherDisplay:10.37,2013-02-01 07:13:00,
2013-02-01 01:23:00,-1.5,-5.6,30.15,West,278,0.0,2.0,82,0.00,SN,SN,0.00,WeatherDisplay:10.37,2013-02-01 07:23:00,
2013-02-01 01:33:00,-1.5,-5.9,30.15,West,273,0.0,5.0,81,0.00,SN,SN,0.00,WeatherDisplay:10.37,2013-02-01 07:33:00,
2013-02-01 01:43:00,-1.7,-6.1,30.16,WNW,283,0.0,2.0,81,0.00,SN,SN,0.00,WeatherDisplay:10.37,2013-02-01 07:43:00,
2013-02-01 01:53:00,-1.8,-6.2,30.16,West,268,0.0,5.0,81,0.00,SN,SN,0.00,WeatherDisplay:10.37,2013-02-01 07:53:00,
2013-02-01 02:03:00,-1.8,-6.2,30.16,West,272,0.0,1.0,81,0.00,SN,SN,0.00,WeatherDisplay:10.37,2013-02-01 08:03:00,
2013-02-01 02:13:00,-2.2,-6.6,30.17,West,275,0.0,3.0,81,0.00,SN,SN,0.00,WeatherDisplay:10.37,2013-02-01 08:13:00,
2013-02-01 02:23:00,-2.2,-6.6,30.17,West,277,0.0,5.0,81,0.00,SN,SN,0.00,WeatherDisplay:10.37,2013-02-01 08:23:00,
2013-02-01 02:33:00,-2.3,-6.7,30.18,WNW,293,0.0,9.0,81,0.00,SN,SN,0.00,WeatherDisplay:10.37,2013-02-01 08:33:00,
2013-02-01 02:43:00,-2.4,-6.8,30.18,WNW,291,0.0,6.0,81,0.00,SN,SN,0.00,WeatherDisplay:10.37,2013-02-01 08:43:00,
2013-02-01 02:53:00,-2.6,-7.0,30.18,West,267,0.0,3.0,81,0.00,SN,SN,0.00,WeatherDisplay:10.37,2013-02-01 08:53:00,
2013-02-01 03:03:00,-2.7,-7.1,30.18,West,262,0.0,0.0,81,0.00,SN,SN,0.00,WeatherDisplay:10.37,2013-02-01 09:03:00,
2013-02-01 03:13:00,-2.7,-7.4,30.19,WNW,283,0.0,5.0,80,0.00,SN,SN,0.00,WeatherDisplay:10.37,2013-02-01 09:13:00,
2013-02-01 03:23:00,-2.9,-7.3,30.19,West,271,0.0,5.0,81,0.00,SN,SN,0.00,WeatherDisplay:10.37,2013-02-01 09:23:00,
2013-02-01 03:33:00,-3.1,-7.7,30.19,West,270,0.0,5.0,80,0.00,SN,SN,0.00,WeatherDisplay:10.37,2013-02-01 09:33:00,
2013-02-01 03:43:00,-3.3,-7.9,30.19,West,280,0.0,3.0,80,0.00,SN,SN,0.00,WeatherDisplay:10.37,2013-02-01 09:43:00,
2013-02-01 03:53:00,-3.5,-7.8,30.19,West,279,0.0,2.0,81,0.00,SN,SN,0.00,WeatherDisplay:10.37,2013-02-01 09:53:00,
2013-02-01 04:03:00,-3.6,-8.3,30.20,West,268,0.0,5.0,80,0.00,SN,SN,0.00,WeatherDisplay:10.37,2013-02-01 10:03:00,
2013-02-01 04:13:00,-3.8,-8.4,30.21,West,270,0.0,5.0,80,0.00,SN,SN,0.00,WeatherDisplay:10.37,2013-02-01 10:13:00,
2013-02-01 04:23:00,-4.0,-8.6,30.21,West,265,0.0,2.0,80,0.00,SN,SN,0.00,WeatherDisplay:10.37,2013-02-01 10:23:00,
2013-02-01 04:33:00,-4.2,-8.8,30.22,WNW,287,0.0,2.0,80,0.00,SN,SN,0.00,WeatherDisplay:10.37,2013-02-01 10:33:00,
2013-02-01 04:43:00,-4.4,-9.0,30.22,West,277,0.0,2.0,80,0.00,SN,SN,0.00,WeatherDisplay:10.37,2013-02-01 10:43:00,
2013-02-01 04:53:00,-4.5,-8.9,30.21,West,275,1.0,7.0,81,0.00,SN,SN,0.00,WeatherDisplay:10.37,2013-02-01 10:53:00,
2013-02-01 05:03:00,-4.7,-9.1,30.22,WNW,291,0.0,0.0,81,0.00,SN,SN,0.00,WeatherDisplay:10.37,2013-02-01 11:03:00,
2013-02-01 05:13:00,-4.9,-9.2,30.22,West,279,0.0,2.0,81,0.00,SN,SN,0.00,WeatherDisplay:10.37,2013-02-01 11:13:00,
2013-02-01 05:23:00,-4.9,-9.2,30.22,NNW,339,0.0,0.0,81,0.00,SN,SN,0.00,WeatherDisplay:10.37,2013-02-01 11:23:00,
2013-02-01 05:33:00,-5.3,-9.6,30.22,West,281,0.0,0.0,81,0.00,SN,SN,0.00,WeatherDisplay:10.37,2013-02-01 11:33:00,
2013-02-01 05:43:00,-5.4,-9.8,30.23,West,260,0.0,6.0,81,0.00,SN,SN,0.00,WeatherDisplay:10.37,2013-02-01 11:43:00,
2013-02-01 05:53:00,-5.6,-9.9,30.23,West,277,0.0,0.0,81,0.00,SN,SN,0.00,WeatherDisplay:10.37,2013-02-01 11:53:00,
2013-02-01 06:03:00,-5.8,-10.1,30.23,West,264,0.0,0.0,81,0.00,SN,SN,0.00,WeatherDisplay:10.37,2013-02-01 12:03:00,
2013-02-01 06:13:00,-6.0,-10.3,30.23,West,274,0.0,0.0,81,0.00,SN,SN,0.00,WeatherDisplay:10.37,2013-02-01 12:13:00,
2013-02-01 06:23:00,-6.2,-10.5,30.24,West,268,0.0,0.0,81,0.00,SN,SN,0.00,WeatherDisplay:10.37,2013-02-01 12:23:00,
2013-02-01 06:33:00,-6.2,-10.5,30.24,WNW,295,0.0,0.0,81,0.00,SN,SN,0.00,WeatherDisplay:10.37,2013-02-01 12:33:00,
2013-02-01 06:43:00,-6.5,-10.8,30.25,WNW,282,0.0,2.0,81,0.00,SN,SN,0.00,WeatherDisplay:10.37,2013-02-01 12:43:00,
2013-02-01 06:53:00,-6.5,-10.8,30.25,West,260,0.0,0.0,81,0.00,SN,SN,0.00,WeatherDisplay:10.37,2013-02-01 12:53:00,
2013-02-01 07:03:00,-6.7,-11.0,30.25,West,261,0.0,0.0,81,0.00,SN,SN,0.00,WeatherDisplay:10.37,2013-02-01 13:03:00,
2013-02-01 07:13:00,-6.7,-11.0,30.25,WSW,257,0.0,0.0,81,0.00,SN,SN,0.00,WeatherDisplay:10.37,2013-02-01 13:13:00,
2013-02-01 07:23:00,-6.7,-11.3,30.25,West,275,0.0,0.0,80,0.00,SN,SN,0.00,WeatherDisplay:10.37,2013-02-01 13:23:00,
2013-02-01 07:33:00,-6.9,-11.4,30.25,West,267,0.0,0.0,80,0.00,SN,SN,0.00,WeatherDisplay:10.37,2013-02-01 13:33:00,
2013-02-01 07:43:00,-6.9,-11.4,30.26,WNW,282,0.0,0.0,80,0.00,SN,SN,0.00,WeatherDisplay:10.37,2013-02-01 13:43:00,
2013-02-01 07:53:00,-5.9,-10.8,30.27,WSW,254,0.0,0.0,79,0.00,SN,SN,0.00,WeatherDisplay:10.37,2013-02-01 13:53:00,
2013-02-01 08:03:00,-4.2,-9.8,30.27,West,264,0.0,0.0,76,0.00,SN,SN,0.00,WeatherDisplay:10.37,2013-02-01 14:03:00,
2013-02-01 08:13:00,-4.1,-10.6,30.27,West,267,0.0,5.0,73,0.00,SN,SN,0.00,WeatherDisplay:10.37,2013-02-01 14:13:00,
2013-02-01 08:23:00,-4.1,-10.9,30.27,West,270,0.0,5.0,72,0.00,SN,SN,0.00,WeatherDisplay:10.37,2013-02-01 14:23:00,
2013-02-01 08:43:00,-3.6,-10.9,30.27,West,266,0.0,5.0,70,0.00,SN,SN,0.00,WeatherDisplay:10.37,2013-02-01 14:43:00,
2013-02-01 08:53:00,-3.3,-11.0,30.28,WNW,298,0.0,3.0,69,0.00,SN,SN,0.00,WeatherDisplay:10.37,2013-02-01 14:53:00,
2013-02-01 09:03:00,-3.5,-11.1,30.28,West,266,0.0,2.0,69,0.00,SN,SN,0.00,WeatherDisplay:10.37,2013-02-01 15:03:00,
2013-02-01 09:13:00,-3.1,-11.0,30.28,West,262,0.0,2.0,68,0.00,SN,SN,0.00,WeatherDisplay:10.37,2013-02-01 15:13:00,
2013-02-01 09:23:00,-2.0,-10.3,30.27,WSW,238,0.0,0.0,67,0.00,SN,SN,0.00,WeatherDisplay:10.37,2013-02-01 15:23:00,
2013-02-01 09:33:00,-2.9,-11.2,30.28,West,278,0.0,3.0,67,0.00,SN,SN,0.00,WeatherDisplay:10.37,2013-02-01 15:33:00,
2013-02-01 09:43:00,-1.9,-10.1,30.27,West,274,0.0,0.0,67,0.00,SN,SN,0.00,WeatherDisplay:10.37,2013-02-01 15:43:00,
2013-02-01 09:53:00,-2.2,-11.0,30.27,West,280,0.0,2.0,65,0.00,SN,SN,0.00,WeatherDisplay:10.37,2013-02-01 15:53:00,
2013-02-01 10:03:00,-1.6,-10.6,30.27,West,280,0.0,0.0,65,0.00,SN,SN,0.00,WeatherDisplay:10.37,2013-02-01 16:03:00,
2013-02-01 10:13:00,-1.3,-10.2,30.27,WNW,295,0.0,0.0,65,0.00,SN,SN,0.00,WeatherDisplay:10.37,2013-02-01 16:13:00,
2013-02-01 10:23:00,-1.1,-10.4,30.27,West,273,0.0,2.0,64,0.00,SN,SN,0.00,WeatherDisplay:10.37,2013-02-01 16:23:00,
2013-02-01 10:33:00,-0.9,-10.2,30.27,West,273,1.0,8.0,64,0.00,SN,SN,0.15,WeatherDisplay:10.37,2013-02-01 16:33:00,
2013-02-01 10:43:00,-1.0,-10.3,30.27,West,270,0.0,18.0,64,0.00,SN,SN,0.15,WeatherDisplay:10.37,2013-02-01 16:43:00,
2013-02-01 10:53:00,-0.1,-9.7,30.27,West,264,0.0,6.0,63,0.00,SN,SN,0.15,WeatherDisplay:10.37,2013-02-01 16:53:00,
2013-02-01 11:03:00,0.1,-9.8,30.28,SW,235,0.0,6.0,62,0.00,SN,SN,0.15,WeatherDisplay:10.37,2013-02-01 17:03:00,
2013-02-01 11:13:00,1.3,-8.7,30.27,West,260,0.0,5.0,62,0.00,SN,SN,0.15,WeatherDisplay:10.37,2013-02-01 17:13:00,
2013-02-01 11:23:00,2.2,-8.5,30.26,West,263,0.0,5.0,60,0.00,SN,SN,0.15,WeatherDisplay:10.37,2013-02-01 17:23:00,
2013-02-01 11:33:00,2.6,-8.2,30.26,West,270,0.0,0.0,60,0.00,SN,SN,0.15,WeatherDisplay:10.37,2013-02-01 17:33:00,
2013-02-01 11:43:00,4.3,-7.3,30.25,WSW,244,0.0,0.0,58,0.00,SN,SN,0.15,WeatherDisplay:10.37,2013-02-01 17:43:00,
2013-02-01 11:53:00,3.6,-8.2,30.25,West,270,0.0,5.0,57,0.00,SN,SN,0.15,WeatherDisplay:10.37,2013-02-01 17:53:00,
2013-02-01 12:03:00,4.4,-7.2,30.25,West,261,0.0,6.0,58,0.00,SN,SN,0.15,WeatherDisplay:10.37,2013-02-01 18:03:00,
2013-02-01 12:13:00,5.3,-7.0,30.25,WSW,256,0.0,0.0,56,0.00,SN,SN,0.15,WeatherDisplay:10.37,2013-02-01 18:13:00,
2013-02-01 12:23:00,4.7,-7.2,30.25,WSW,246,0.0,5.0,57,0.00,SN,SN,0.15,WeatherDisplay:10.37,2013-02-01 18:23:00,
2013-02-01 12:33:00,5.1,-6.5,30.24,WSW,254,0.0,0.0,58,0.00,SN,SN,0.15,WeatherDisplay:10.37,2013-02-01 18:33:00,
2013-02-01 12:43:00,5.4,-6.2,30.24,SW,233,0.0,5.0,58,0.00,SN,SN,0.15,WeatherDisplay:10.37,2013-02-01 18:43:00,
2013-02-01 12:53:00,5.4,-6.5,30.23,SSW,208,0.0,10.0,57,0.00,SN,SN,0.15,WeatherDisplay:10.37,2013-02-01 18:53:00,
2013-02-01 13:03:00,5.3,-6.3,30.23,SW,222,0.0,12.0,58,0.00,SN,SN,0.15,WeatherDisplay:10.37,2013-02-01 19:03:00,
2013-02-01 13:13:00,5.7,-5.9,30.23,SSW,204,0.0,13.0,58,0.00,SN,SN,0.15,WeatherDisplay:10.37,2013-02-01 19:13:00,
2013-02-01 13:23:00,5.9,-5.7,30.23,SW,229,0.0,5.0,58,0.00,SN,SN,0.15,WeatherDisplay:10.37,2013-02-01 19:23:00,
2013-02-01 13:33:00,5.9,-5.7,30.22,SSW,206,0.0,14.0,58,0.00,SN,SN,0.15,WeatherDisplay:10.37,2013-02-01 19:33:00,
2013-02-01 13:43:00,6.1,-5.9,30.23,SW,216,0.0,3.0,57,0.00,SN,SN,0.15,WeatherDisplay:10.37,2013-02-01 19:43:00,
2013-02-01 13:53:00,6.2,-6.1,30.23,SSW,204,0.0,12.0,56,0.00,SN,SN,0.15,WeatherDisplay:10.37,2013-02-01 19:53:00,
2013-02-01 14:03:00,5.5,-6.1,30.22,SW,218,1.0,18.0,58,0.00,SN,SN,0.15,WeatherDisplay:10.37,2013-02-01 20:03:00,
2013-02-01 14:13:00,5.2,-6.0,30.22,SW,223,7.0,18.0,59,0.00,SN,SN,0.15,WeatherDisplay:10.37,2013-02-01 20:13:00,
2013-02-01 14:23:00,5.2,-6.4,30.22,SSW,213,7.0,23.0,58,0.00,SN,SN,0.15,WeatherDisplay:10.37,2013-02-01 20:23:00,
2013-02-01 14:33:00,5.5,-5.7,30.22,WSW,237,7.0,18.0,59,0.00,SN,SN,0.15,WeatherDisplay:10.37,2013-02-01 20:33:00,
2013-02-01 14:43:00,5.5,-6.1,30.21,SW,234,7.0,22.0,58,0.00,SN,SN,0.15,WeatherDisplay:10.37,2013-02-01 20:43:00,
2013-02-01 14:53:00,5.4,-5.9,30.21,WSW,237,6.0,18.0,59,0.00,SN,SN,0.15,WeatherDisplay:10.37,2013-02-01 20:53:00,
2013-02-01 15:03:00,6.4,-5.6,30.21,SSW,206,8.0,15.0,57,0.00,SN,SN,0.15,WeatherDisplay:10.37,2013-02-01 21:03:00,
2013-02-01 16:33:00,4.6,-5.6,30.18,SW,221,9.0,16.0,62,0.00,SN,SN,0.15,WeatherDisplay:10.37,2013-02-01 22:33:00,
2013-02-01 16:43:00,4.3,-5.9,30.18,SW,214,10.0,17.0,62,0.00,SN,SN,0.15,WeatherDisplay:10.37,2013-02-01 22:43:00,
2013-02-01 16:53:00,2.5,-6.6,30.18,SSW,201,7.0,16.0,65,0.00,SN,SN,0.15,WeatherDisplay:10.37,2013-02-01 22:53:00,
2013-02-01 17:03:00,1.8,-7.0,30.18,SW,234,8.0,16.0,66,0.00,SN,SN,0.15,WeatherDisplay:10.37,2013-02-01 23:03:00,
2013-02-01 17:13:00,1.6,-6.5,30.18,WSW,242,6.0,22.0,68,0.00,SN,SN,0.15,WeatherDisplay:10.37,2013-02-01 23:13:00,
2013-02-01 17:23:00,1.8,-6.4,30.18,SW,236,6.0,20.0,68,0.00,SN,SN,0.15,WeatherDisplay:10.37,2013-02-01 23:23:00,
2013-02-01 17:33:00,1.8,-6.4,30.18,SW,225,6.0,15.0,68,0.00,SN,SN,0.15,WeatherDisplay:10.37,2013-02-01 23:33:00,
2013-02-01 17:43:00,1.8,-6.1,30.17,SW,220,3.0,14.0,69,0.00,SN,SN,0.15,WeatherDisplay:10.37,2013-02-01 23:43:00,
2013-02-01 17:53:00,1.9,-5.9,30.17,SW,220,9.0,16.0,69,0.00,SN,SN,0.15,WeatherDisplay:10.37,2013-02-01 23:53:00,
2013-02-01 18:03:00,2.1,-5.7,30.17,SSW,211,8.0,15.0,69,0.00,SN,SN,0.15,WeatherDisplay:10.37,2013-02-02 00:03:00,
2013-02-01 18:13:00,2.3,-5.3,30.17,SW,223,8.0,20.0,70,0.00,SN,SN,0.15,WeatherDisplay:10.37,2013-02-02 00:13:00,
2013-02-01 18:23:00,2.4,-5.5,30.17,SW,235,13.0,20.0,69,0.00,SN,SN,0.15,WeatherDisplay:10.37,2013-02-02 00:23:00,
2013-02-01 18:33:00,2.5,-5.1,30.17,SW,217,7.0,22.0,70,0.00,SN,SN,0.15,WeatherDisplay:10.37,2013-02-02 00:33:00,
2013-02-01 18:43:00,2.7,-4.9,30.16,SW,223,8.0,16.0,70,0.00,SN,SN,0.15,WeatherDisplay:10.37,2013-02-02 00:43:00,
2013-02-01 18:53:00,2.7,-4.9,30.16,WSW,238,5.0,15.0,70,0.00,SN,SN,0.15,WeatherDisplay:10.37,2013-02-02 00:53:00,
2013-02-01 19:03:00,2.7,-4.6,30.16,SSW,207,3.0,16.0,71,0.00,SN,SN,0.15,WeatherDisplay:10.37,2013-02-02 01:03:00,
2013-02-01 19:13:00,2.7,-4.0,30.15,SSW,212,2.0,14.0,73,0.00,SN,SN,0.15,WeatherDisplay:10.37,2013-02-02 01:13:00,
2013-02-01 19:23:00,2.8,-3.6,30.16,SSW,206,1.0,9.0,74,0.00,SN,SN,0.15,WeatherDisplay:10.37,2013-02-02 01:23:00,
2013-02-01 19:33:00,2.8,-3.0,30.16,SW,231,2.0,8.0,76,0.00,SN,SN,0.15,WeatherDisplay:10.37,2013-02-02 01:33:00,
2013-02-01 19:43:00,2.8,-1.9,30.16,SW,231,5.0,12.0,80,0.00,SN,SN,0.15,WeatherDisplay:10.37,2013-02-02 01:43:00,
2013-02-01 19:53:00,2.7,-1.6,30.16,SSW,197,6.0,12.0,82,0.00,SN,SN,0.15,WeatherDisplay:10.37,2013-02-02 01:53:00,
2013-02-01 20:03:00,2.7,-1.3,30.16,SW,219,3.0,14.0,83,0.00,SN,SN,0.15,WeatherDisplay:10.37,2013-02-02 02:03:00,
2013-02-01 20:13:00,2.9,-1.4,30.16,SSW,207,3.0,9.0,82,0.00,SN,SN,0.15,WeatherDisplay:10.37,2013-02-02 02:13:00,
2013-02-01 20:23:00,3.2,-1.1,30.15,SSW,213,5.0,15.0,82,0.00,SN,SN,0.15,WeatherDisplay:10.37,2013-02-02 02:23:00,
2013-02-01 20:33:00,3.2,-1.1,30.15,SW,217,3.0,10.0,82,0.00,SN,SN,0.15,WeatherDisplay:10.37,2013-02-02 02:33:00,
2013-02-01 20:43:00,3.4,-0.9,30.14,SW,235,5.0,9.0,82,0.00,SN,SN,0.15,WeatherDisplay:10.37,2013-02-02 02:43:00,
2013-02-01 20:53:00,3.5,-0.7,30.14,SSW,197,1.0,10.0,82,0.00,SN,SN,0.15,WeatherDisplay:10.37,2013-02-02 02:53:00,
2013-02-01 21:03:00,3.6,-0.4,30.14,South,189,5.0,10.0,83,0.00,SN,SN,0.15,WeatherDisplay:10.37,2013-02-02 03:03:00,
2013-02-01 21:13:00,3.4,-0.4,30.14,SSW,196,3.0,9.0,84,0.00,SN,SN,0.15,WeatherDisplay:10.37,2013-02-02 03:13:00,
2013-02-01 21:23:00,3.4,0.1,30.14,South,184,5.0,10.0,86,0.00,SN,SN,0.15,WeatherDisplay:10.37,2013-02-02 03:23:00,
2013-02-01 21:33:00,3.4,0.4,30.14,South,186,2.0,9.0,87,0.00,SN,SN,0.15,WeatherDisplay:10.37,2013-02-02 03:33:00,
2013-02-01 21:43:00,3.4,0.4,30.13,SSE,163,3.0,8.0,87,0.00,SN,SN,0.15,WeatherDisplay:10.37,2013-02-02 03:43:00,
2013-02-01 21:53:00,3.6,0.8,30.14,South,185,3.0,9.0,88,0.00,SN,SN,0.15,WeatherDisplay:10.37,2013-02-02 03:53:00,
2013-02-01 22:03:00,3.6,0.8,30.13,WSW,239,3.0,8.0,88,0.00,SN,SN,0.15,WeatherDisplay:10.37,2013-02-02 04:03:00,
2013-02-01 22:13:00,3.7,1.2,30.13,SSW,212,2.0,6.0,89,0.00,SN,SN,0.15,WeatherDisplay:10.37,2013-02-02 04:13:00,
2013-02-01 22:23:00,3.9,1.3,30.12,SSW,213,2.0,10.0,89,0.00,SN,SN,0.15,WeatherDisplay:10.37,2013-02-02 04:23:00,
2013-02-01 22:33:00,3.9,1.4,30.12,SW,231,1.0,3.0,89,0.00,SN,SN,0.15,WeatherDisplay:10.37,2013-02-02 04:33:00,
2013-02-01 22:43:00,4.1,1.6,30.11,SSW,197,0.0,7.0,89,0.00,SN,SN,0.15,WeatherDisplay:10.37,2013-02-02 04:43:00,
2013-02-01 22:53:00,4.3,1.8,30.11,South,189,0.0,5.0,89,0.00,SN,SN,0.15,WeatherDisplay:10.37,2013-02-02 04:53:00,
2013-02-01 23:03:00,4.3,1.8,30.10,SSW,209,0.0,2.0,89,0.00,SN,SN,0.15,WeatherDisplay:10.37,2013-02-02 05:03:00,
2013-02-01 23:13:00,4.3,2.0,30.10,SSW,201,0.0,2.0,90,0.00,SN,SN,0.15,WeatherDisplay:10.37,2013-02-02 05:13:00,
2013-02-01 23:23:00,4.5,2.2,30.09,South,186,0.0,2.0,90,0.00,SN,SN,0.15,WeatherDisplay:10.37,2013-02-02 05:23:00,
2013-02-01 23:33:00,4.5,2.2,30.09,SSW,192,0.0,2.0,90,0.00,SN,SN,0.15,WeatherDisplay:10.37,2013-02-02 05:33:00,
2013-02-01 23:43:00,4.6,2.4,30.08,SSW,205,0.0,2.0,90,0.00,SN,SN,0.15,WeatherDisplay:10.37,2013-02-02 05:43:00,
2013-02-01 23:53:00,4.6,2.4,30.08,South,177,0.0,2.0,90,0.00,SN,SN,0.15,WeatherDisplay:10.37,2013-02-02 05:53:00,